sensor_id;sensor_type;location;lat;lon;timestamp;pressure;altitude;pressure_sealevel;temperature;humidity
60715;BME280;46564;53.096;8.246;2023-02-08T08:12:35;103787.06;;;-1.56;nan
60715;BME280;46564;53.096;8.246;2023-02-08T08:17:36;103793.44;;;-0.69;nan
60715;BME280;46564;53.096;8.246;2023-02-08T08:22:42;103796.78;;;-0.38;nan
60715;BME280;46564;53.096;8.246;2023-02-08T08:27:43;103799.25;;;-0.63;nan
60715;BME280;46564;53.096;8.246;2023-02-08T08:32:45;103798.34;;;-0.86;nan
60715;BME280;46564;53.096;8.246;2023-02-08T08:37:47;103792.38;;;-0.78;nan
60715;BME280;46564;53.096;8.246;2023-02-08T08:42:48;103787.75;;;-0.74;nan
60715;BME280;46564;53.096;8.246;2023-02-08T08:47:50;103783.13;;;-0.69;nan
60715;BME280;46564;53.096;8.246;2023-02-08T08:52:52;103788.66;;;-0.34;nan
60715;BME280;46564;53.096;8.246;2023-02-08T08:57:53;103778.03;;;-0.05;nan
60715;BME280;46564;53.096;8.246;2023-02-08T09:02:55;103776.72;;;-0.17;nan
60715;BME280;46564;53.096;8.246;2023-02-08T09:07:57;103777.72;;;-0.08;nan
60715;BME280;46564;53.096;8.246;2023-02-08T09:12:58;103772.38;;;-0.26;nan
60715;BME280;46564;53.096;8.246;2023-02-08T09:18:00;103779.00;;;-0.60;nan
60715;BME280;46564;53.096;8.246;2023-02-08T09:23:02;103783.34;;;-0.20;nan
60715;BME280;46564;53.096;8.246;2023-02-08T09:28:03;103769.44;;;0.19;nan
60715;BME280;46564;53.096;8.246;2023-02-08T09:33:05;103783.97;;;0.75;nan
60715;BME280;46564;53.096;8.246;2023-02-08T09:38:07;103786.00;;;0.86;nan
60715;BME280;46564;53.096;8.246;2023-02-08T09:43:12;103796.97;;;0.68;nan
60715;BME280;46564;53.096;8.246;2023-02-08T09:48:23;103806.09;;;0.98;nan
60715;BME280;46564;53.096;8.246;2023-02-08T09:53:33;103805.06;;;1.38;nan
60715;BME280;46564;53.096;8.246;2023-02-08T10:03:41;103804.03;;;2.04;nan
60715;BME280;46564;53.096;8.246;2023-02-08T10:08:49;103788.34;;;2.29;nan
60715;BME280;46564;53.096;8.246;2023-02-08T10:14:00;103778.31;;;1.97;nan
60715;BME280;46564;53.096;8.246;2023-02-08T10:24:28;103769.47;;;2.12;nan
60715;BME280;46564;53.096;8.246;2023-02-08T10:35:24;103763.53;;;2.57;nan
60715;BME280;46564;53.096;8.246;2023-02-08T10:40:37;103763.53;;;2.57;nan
60715;BME280;46564;53.096;8.246;2023-02-08T10:45:48;103763.94;;;2.71;nan
60715;BME280;46564;53.096;8.246;2023-02-08T10:50:51;103775.00;;;2.87;nan
60715;BME280;46564;53.096;8.246;2023-02-08T10:55:53;103772.47;;;3.15;nan
60715;BME280;46564;53.096;8.246;2023-02-08T11:00:55;103771.38;;;3.22;nan
60715;BME280;46564;53.096;8.246;2023-02-08T11:05:58;103758.19;;;3.38;nan
60715;BME280;46564;53.096;8.246;2023-02-08T11:11:04;103760.25;;;3.50;nan
60715;BME280;46564;53.096;8.246;2023-02-08T11:16:12;103756.03;;;3.70;nan
60715;BME280;46564;53.096;8.246;2023-02-08T11:21:26;103765.41;;;3.78;nan
60715;BME280;46564;53.096;8.246;2023-02-08T11:31:31;103745.41;;;3.86;nan
60715;BME280;46564;53.096;8.246;2023-02-08T11:36:42;103754.56;;;4.01;nan
60715;BME280;46564;53.096;8.246;2023-02-08T11:41:51;103740.19;;;4.05;nan
60715;BME280;46564;53.096;8.246;2023-02-08T11:46:56;103751.31;;;4.23;nan
60715;BME280;46564;53.096;8.246;2023-02-08T11:52:00;103744.06;;;4.48;nan
60715;BME280;46564;53.096;8.246;2023-02-08T11:57:10;103733.59;;;4.57;nan
60715;BME280;46564;53.096;8.246;2023-02-08T12:02:34;103724.31;;;4.69;nan
60715;BME280;46564;53.096;8.246;2023-02-08T12:13:14;103704.28;;;5.08;nan
60715;BME280;46564;53.096;8.246;2023-02-08T12:29:05;103657.94;;;5.33;nan
60715;BME280;46564;53.096;8.246;2023-02-08T12:50:55;103618.88;;;5.64;nan
60715;BME280;46564;53.096;8.246;2023-02-08T12:56:09;103612.09;;;5.76;nan
60715;BME280;46564;53.096;8.246;2023-02-08T13:01:20;103602.47;;;5.86;nan
60715;BME280;46564;53.096;8.246;2023-02-08T13:06:27;103601.03;;;5.79;nan
60715;BME280;46564;53.096;8.246;2023-02-08T13:11:51;103580.16;;;5.67;nan
60715;BME280;46564;53.096;8.246;2023-02-08T13:16:58;103580.13;;;5.77;nan
60715;BME280;46564;53.096;8.246;2023-02-08T13:22:03;103585.03;;;5.84;nan
60715;BME280;46564;53.096;8.246;2023-02-08T13:27:14;103564.63;;;5.79;nan
60715;BME280;46564;53.096;8.246;2023-02-08T13:32:26;103566.75;;;5.73;nan
60715;BME280;46564;53.096;8.246;2023-02-08T13:37:33;103550.16;;;5.60;nan
60715;BME280;46564;53.096;8.246;2023-02-08T13:42:40;103547.44;;;5.59;nan
60715;BME280;46564;53.096;8.246;2023-02-08T13:47:46;103553.69;;;5.51;nan
60715;BME280;46564;53.096;8.246;2023-02-08T13:52:50;103544.84;;;5.48;nan
60715;BME280;46564;53.096;8.246;2023-02-08T13:57:54;103542.00;;;5.45;nan
60715;BME280;46564;53.096;8.246;2023-02-08T14:03:00;103538.91;;;5.39;nan
60715;BME280;46564;53.096;8.246;2023-02-08T14:08:03;103546.81;;;5.41;nan
60715;BME280;46564;53.096;8.246;2023-02-08T14:13:30;103554.75;;;5.32;nan
60715;BME280;46564;53.096;8.246;2023-02-08T14:18:34;103540.50;;;5.27;nan
60715;BME280;46564;53.096;8.246;2023-02-08T14:23:37;103534.09;;;5.34;nan
60715;BME280;46564;53.096;8.246;2023-02-08T14:28:45;103528.53;;;5.29;nan
60715;BME280;46564;53.096;8.246;2023-02-08T14:33:54;103529.94;;;5.36;nan
60715;BME280;46564;53.096;8.246;2023-02-08T14:49:44;103488.53;;;5.27;nan
60715;BME280;46564;53.096;8.246;2023-02-08T14:54:49;103489.19;;;5.24;nan
60715;BME280;46564;53.096;8.246;2023-02-08T14:59:58;103481.16;;;5.11;nan
60715;BME280;46564;53.096;8.246;2023-02-08T15:05:01;103477.25;;;5.06;nan
60715;BME280;46564;53.096;8.246;2023-02-08T15:10:12;103473.78;;;4.95;nan
60715;BME280;46564;53.096;8.246;2023-02-08T15:15:28;103466.03;;;4.74;nan
60715;BME280;46564;53.096;8.246;2023-02-08T15:20:33;103466.03;;;4.64;nan
60715;BME280;46564;53.096;8.246;2023-02-08T15:25:36;103458.63;;;4.58;nan
60715;BME280;46564;53.096;8.246;2023-02-08T15:30:38;103462.00;;;4.47;nan
60715;BME280;46564;53.096;8.246;2023-02-08T15:35:41;103463.56;;;4.35;nan
60715;BME280;46564;53.096;8.246;2023-02-08T15:41:02;103467.84;;;4.24;nan
60715;BME280;46564;53.096;8.246;2023-02-08T15:46:20;103461.31;;;3.98;nan
60715;BME280;46564;53.096;8.246;2023-02-08T15:51:23;103440.81;;;3.91;nan
60715;BME280;46564;53.096;8.246;2023-02-08T15:56:31;103437.69;;;3.85;nan
60715;BME280;46564;53.096;8.246;2023-02-08T16:01:39;103433.22;;;3.74;nan
60715;BME280;46564;53.096;8.246;2023-02-08T16:06:53;103431.22;;;3.50;nan
60715;BME280;46564;53.096;8.246;2023-02-08T16:11:58;103418.09;;;3.39;nan
60715;BME280;46564;53.096;8.246;2023-02-08T16:17:00;103407.41;;;3.25;nan
60715;BME280;46564;53.096;8.246;2023-02-08T16:27:27;103400.84;;;2.99;nan
60715;BME280;46564;53.096;8.246;2023-02-08T16:32:31;103389.31;;;2.77;nan
60715;BME280;46564;53.096;8.246;2023-02-08T16:37:34;103401.50;;;2.59;nan
60715;BME280;46564;53.096;8.246;2023-02-08T16:42:37;103390.78;;;2.45;nan
60715;BME280;46564;53.096;8.246;2023-02-08T16:47:52;103389.00;;;2.36;nan
60715;BME280;46564;53.096;8.246;2023-02-08T16:53:02;103388.88;;;2.15;nan
60715;BME280;46564;53.096;8.246;2023-02-08T16:58:04;103374.81;;;2.03;nan
60715;BME280;46564;53.096;8.246;2023-02-08T17:03:06;103361.50;;;1.89;nan
60715;BME280;46564;53.096;8.246;2023-02-08T17:08:13;103363.19;;;1.80;nan
60715;BME280;46564;53.096;8.246;2023-02-08T17:13:15;103364.34;;;1.65;nan
60715;BME280;46564;53.096;8.246;2023-02-08T17:18:21;103368.81;;;1.48;nan
60715;BME280;46564;53.096;8.246;2023-02-08T17:23:23;103363.06;;;1.42;nan
60715;BME280;46564;53.096;8.246;2023-02-08T17:28:25;103355.38;;;1.24;nan
60715;BME280;46564;53.096;8.246;2023-02-08T17:33:27;103357.44;;;1.01;nan
60715;BME280;46564;53.096;8.246;2023-02-08T17:38:29;103342.72;;;0.82;nan
60715;BME280;46564;53.096;8.246;2023-02-08T17:43:31;103352.16;;;0.56;nan
